createdAt,value
2023-04-16T00:00:30.411Z,8.7508
2023-04-16T00:01:32.042Z,8.7469
2023-04-16T00:02:33.854Z,8.7459
2023-04-16T00:03:35.551Z,8.7407
2023-04-16T00:04:37.023Z,8.7368
2023-04-16T00:05:38.664Z,8.7385
2023-04-16T00:06:40.293Z,8.7460
2023-04-16T00:07:41.900Z,8.7501
2023-04-16T00:08:43.670Z,8.7530
2023-04-16T00:09:45.203Z,8.7456
2023-04-16T00:10:46.987Z,8.7440
2023-04-16T00:11:48.583Z,8.7478
2023-04-16T00:12:50.255Z,8.7517
2023-04-16T00:13:51.865Z,8.7495
2023-04-16T00:14:53.500Z,8.7425
2023-04-16T00:15:55.229Z,8.7342
2023-04-16T00:16:56.901Z,8.7203
2023-04-16T00:17:58.558Z,8.7159
2023-04-16T00:19:00.184Z,8.7183
2023-04-16T00:20:01.861Z,8.7220
2023-04-16T00:21:03.446Z,8.7175
2023-04-16T00:22:05.102Z,8.7150
2023-04-16T00:23:06.690Z,8.7069
2023-04-16T00:24:08.340Z,8.7020
2023-04-16T00:25:09.983Z,8.6984
2023-04-16T00:26:11.693Z,8.6957
2023-04-16T00:27:13.282Z,8.6863
2023-04-16T00:28:14.927Z,8.6808
2023-04-16T00:29:16.582Z,8.6820
2023-04-16T00:30:18.236Z,8.6909
2023-04-16T00:31:19.977Z,8.6978
2023-04-16T00:32:21.547Z,8.7002
2023-04-16T00:33:23.151Z,8.7015
2023-04-16T00:34:24.803Z,8.7077
2023-04-16T00:35:26.443Z,8.7201
2023-04-16T00:36:28.161Z,8.7255
2023-04-16T00:37:29.740Z,8.7252
2023-04-16T00:38:31.466Z,8.7251
2023-04-16T00:39:33.060Z,8.7210
2023-04-16T00:40:34.743Z,8.7113
2023-04-16T00:41:36.417Z,8.6927
2023-04-16T00:42:38.014Z,8.6786
2023-04-16T00:43:39.662Z,8.6636
2023-04-16T00:44:41.327Z,8.6493
2023-04-16T00:45:42.963Z,8.6396
2023-04-16T00:46:44.753Z,8.6365
2023-04-16T00:47:46.310Z,8.6331
2023-04-16T00:48:47.900Z,8.6196
2023-04-16T00:49:49.545Z,8.6127
2023-04-16T00:50:51.199Z,8.6081
2023-04-16T00:51:52.863Z,8.6084
2023-04-16T00:52:54.476Z,8.6107
2023-04-16T00:53:56.149Z,8.6069
2023-04-16T00:54:57.766Z,8.6054
2023-04-16T00:55:59.459Z,8.6038
2023-04-16T00:57:01.083Z,8.6012
2023-04-16T00:58:02.749Z,8.5981
2023-04-16T00:59:04.443Z,8.5894
2023-04-16T01:00:06.111Z,8.5795
2023-04-16T01:01:07.845Z,8.5752
2023-04-16T01:02:09.441Z,8.5846
2023-04-16T01:03:11.116Z,8.5972
2023-04-16T01:04:12.753Z,8.6130
2023-04-16T01:05:14.287Z,8.6297
2023-04-16T01:06:15.918Z,8.6331
2023-04-16T01:07:17.565Z,8.6370
2023-04-16T01:08:19.219Z,8.6345
2023-04-16T01:09:20.845Z,8.6331
2023-04-16T01:10:22.487Z,8.6304
2023-04-16T01:11:24.165Z,8.6222
2023-04-16T01:12:25.773Z,8.6191
2023-04-16T01:13:27.411Z,8.6153
2023-04-16T01:14:29.043Z,8.6145
2023-04-16T01:15:30.727Z,8.6217
2023-04-16T01:16:32.408Z,8.6219
2023-04-16T01:17:34.058Z,8.6207
2023-04-16T01:18:35.688Z,8.6193
2023-04-16T01:19:37.285Z,8.6284
2023-04-16T01:20:38.964Z,8.6412
2023-04-16T01:21:40.607Z,8.6462
2023-04-16T01:22:42.244Z,8.6525
2023-04-16T01:23:43.904Z,8.6547
2023-04-16T01:24:45.534Z,8.6594
2023-04-16T01:25:47.208Z,8.6680
2023-04-16T01:26:48.848Z,8.6755
2023-04-16T01:27:50.474Z,8.6827
2023-04-16T01:28:52.126Z,8.6831
2023-04-16T01:29:53.768Z,8.6844
2023-04-16T01:30:55.536Z,8.6925
2023-04-16T01:31:57.061Z,8.6922
2023-04-16T01:32:58.719Z,8.6787
2023-04-16T01:34:00.331Z,8.6663
2023-04-16T01:35:02.166Z,8.6607
2023-04-16T01:36:03.636Z,8.6537
2023-04-16T01:37:05.305Z,8.6507
2023-04-16T01:38:06.905Z,8.6530
2023-04-16T01:39:08.737Z,8.6605
2023-04-16T01:40:10.189Z,8.6668
2023-04-16T01:41:11.848Z,8.6664
2023-04-16T01:42:13.543Z,8.6526
2023-04-16T01:43:15.162Z,8.6386
2023-04-16T01:44:16.766Z,8.6287
2023-04-16T01:45:18.464Z,8.6269
2023-04-16T01:46:20.145Z,8.6338
2023-04-16T01:47:21.788Z,8.6371
2023-04-16T01:48:23.366Z,8.6440
2023-04-16T01:49:24.992Z,8.6515
2023-04-16T01:50:26.677Z,8.6472
2023-04-16T01:51:28.281Z,8.6490
2023-04-16T01:52:29.986Z,8.6528
2023-04-16T01:53:31.649Z,8.6562
2023-04-16T01:54:33.324Z,8.6524
2023-04-16T01:55:34.914Z,8.6387
2023-04-16T01:56:36.566Z,8.6181
2023-04-16T01:57:38.287Z,8.6073
2023-04-16T01:58:39.865Z,8.6097
2023-04-16T01:59:41.486Z,8.6159
2023-04-16T02:00:43.264Z,8.6226
2023-04-16T02:01:44.820Z,8.6354
2023-04-16T02:02:46.702Z,8.6510
2023-04-16T02:03:48.236Z,8.6597
2023-04-16T02:04:49.801Z,8.6659
2023-04-16T02:05:51.383Z,8.6679
2023-04-16T02:06:53.075Z,8.6703
2023-04-16T02:07:54.692Z,8.6700
2023-04-16T02:08:56.306Z,8.6757
2023-04-16T02:09:57.941Z,8.6790
2023-04-16T02:10:59.572Z,8.6798
2023-04-16T02:12:01.225Z,8.6804
2023-04-16T02:13:02.909Z,8.6848
2023-04-16T02:14:04.536Z,8.6819
2023-04-16T02:15:06.181Z,8.6716
2023-04-16T02:16:07.829Z,8.6651
2023-04-16T02:17:09.443Z,8.6567
2023-04-16T02:18:11.157Z,8.6466
2023-04-16T02:19:12.810Z,8.6353
2023-04-16T02:20:14.429Z,8.6318
2023-04-16T02:21:16.041Z,8.6378
2023-04-16T02:22:17.692Z,8.6528
2023-04-16T02:23:19.405Z,8.6667
2023-04-16T02:24:20.980Z,8.6705
2023-04-16T02:25:22.623Z,8.6624
2023-04-16T02:26:24.329Z,8.6512
2023-04-16T02:27:25.920Z,8.6375
2023-04-16T02:28:27.599Z,8.6255
2023-04-16T02:29:29.184Z,8.6144
2023-04-16T02:30:30.849Z,8.6106
2023-04-16T02:31:32.514Z,8.6096
2023-04-16T02:32:34.186Z,8.6047
2023-04-16T02:33:35.833Z,8.5960
2023-04-16T02:34:37.461Z,8.5885
2023-04-16T02:35:39.131Z,8.5845
2023-04-16T02:36:40.728Z,8.5839
2023-04-16T02:37:42.372Z,8.5887
2023-04-16T02:38:44.131Z,8.5880
2023-04-16T02:39:45.708Z,8.5836
2023-04-16T02:40:47.345Z,8.5822
2023-04-16T02:41:48.963Z,8.5844
2023-04-16T02:42:50.630Z,8.5792
2023-04-16T02:43:52.301Z,8.5792
2023-04-16T02:44:53.918Z,8.5840
2023-04-16T02:45:55.538Z,8.5856
2023-04-16T02:46:57.122Z,8.5721
2023-04-16T02:47:58.820Z,8.5633
2023-04-16T02:49:00.464Z,8.5639
2023-04-16T02:50:02.049Z,8.5641
2023-04-16T02:51:03.714Z,8.5673
2023-04-16T02:52:05.393Z,8.5710
2023-04-16T02:53:07.022Z,8.5686
2023-04-16T02:54:08.695Z,8.5693
2023-04-16T02:55:10.324Z,8.5668
2023-04-16T02:56:11.955Z,8.5691
2023-04-16T02:57:13.631Z,8.5691
2023-04-16T02:58:15.230Z,8.5716
2023-04-16T02:59:16.913Z,8.5732
2023-04-16T03:00:18.547Z,8.5747
2023-04-16T03:01:20.214Z,8.5761
2023-04-16T03:02:22.272Z,8.5698
2023-04-16T03:03:23.526Z,8.5677
2023-04-16T03:04:25.169Z,8.5734
2023-04-16T03:05:26.790Z,8.5818
2023-04-16T03:06:28.429Z,8.5815
2023-04-16T03:07:30.133Z,8.5721
2023-04-16T03:08:31.690Z,8.5653
2023-04-16T03:09:33.390Z,8.5494
2023-04-16T03:10:35.029Z,8.5398
2023-04-16T03:11:36.671Z,8.5386
2023-04-16T03:12:38.313Z,8.5460
2023-04-16T03:13:39.977Z,8.5439
2023-04-16T03:14:41.670Z,8.5383
2023-04-16T03:15:43.280Z,8.5347
2023-04-16T03:16:44.962Z,8.5220
2023-04-16T03:17:46.591Z,8.5113
2023-04-16T03:18:48.175Z,8.5093
2023-04-16T03:19:49.874Z,8.5037
2023-04-16T03:20:51.468Z,8.4971
2023-04-16T03:21:53.140Z,8.4852
2023-04-16T03:22:54.799Z,8.4722
2023-04-16T03:23:56.438Z,8.4613
2023-04-16T03:24:58.115Z,8.4514
2023-04-16T03:25:59.733Z,8.4454
2023-04-16T03:27:01.381Z,8.4373
2023-04-16T03:28:03.013Z,8.4318
2023-04-16T03:29:04.672Z,8.4281
2023-04-16T03:30:06.338Z,8.4196
2023-04-16T03:31:07.965Z,8.4084
2023-04-16T03:32:09.638Z,8.3996
2023-04-16T03:33:11.417Z,8.3961
2023-04-16T03:34:12.929Z,8.4048
2023-04-16T03:35:14.604Z,8.4060
2023-04-16T03:36:16.280Z,8.3989
2023-04-16T03:37:17.918Z,8.4029
2023-04-16T03:38:19.567Z,8.4153
2023-04-16T03:39:21.282Z,8.4261
2023-04-16T03:40:22.962Z,8.4253
2023-04-16T03:41:24.540Z,8.4188
2023-04-16T03:42:26.231Z,8.4072
2023-04-16T03:43:27.866Z,8.4036
2023-04-16T03:44:29.481Z,8.3981
2023-04-16T03:45:31.233Z,8.3978
2023-04-16T03:46:32.852Z,8.4027
2023-04-16T03:47:34.463Z,8.4108
2023-04-16T03:48:36.172Z,8.4160
2023-04-16T03:49:37.732Z,8.4098
2023-04-16T03:50:39.496Z,8.4021
2023-04-16T03:51:41.052Z,8.4017
2023-04-16T03:52:42.684Z,8.3992
2023-04-16T03:53:44.322Z,8.3962
2023-04-16T03:54:46.021Z,8.3841
2023-04-16T03:55:47.683Z,8.3617
2023-04-16T03:56:49.275Z,8.3466
2023-04-16T03:57:50.933Z,8.3457
2023-04-16T03:58:52.576Z,8.3404
2023-04-16T03:59:54.215Z,8.3354
2023-04-16T04:00:55.918Z,8.3267
2023-04-16T04:01:57.712Z,8.3215
2023-04-16T04:02:59.305Z,8.3204
2023-04-16T04:04:00.971Z,8.3279
2023-04-16T04:05:02.631Z,8.3298
2023-04-16T04:06:04.150Z,8.3285
2023-04-16T04:07:05.780Z,8.3317
2023-04-16T04:08:07.416Z,8.3376
2023-04-16T04:09:09.281Z,8.3390
2023-04-16T04:10:10.718Z,8.3305
2023-04-16T04:11:12.443Z,8.3333
2023-04-16T04:12:14.018Z,8.3355
2023-04-16T04:13:15.655Z,8.3410
2023-04-16T04:14:17.297Z,8.3461
2023-04-16T04:15:18.935Z,8.3517
2023-04-16T04:16:20.665Z,8.3607
2023-04-16T04:17:22.340Z,8.3664
2023-04-16T04:18:23.855Z,8.3719
2023-04-16T04:19:25.542Z,8.3745
2023-04-16T04:20:27.188Z,8.3662
2023-04-16T04:21:28.887Z,8.3600
2023-04-16T04:22:30.478Z,8.3599
2023-04-16T04:23:32.144Z,8.3609
2023-04-16T04:24:33.811Z,8.3498
2023-04-16T04:25:35.432Z,8.3353
2023-04-16T04:26:37.226Z,8.3317
2023-04-16T04:27:38.738Z,8.3373
2023-04-16T04:28:40.310Z,8.3354
2023-04-16T04:29:41.941Z,8.3334
2023-04-16T04:30:43.625Z,8.3391
2023-04-16T04:31:45.358Z,8.3452
2023-04-16T04:32:46.940Z,8.3409
2023-04-16T04:33:48.565Z,8.3432
2023-04-16T04:34:50.386Z,8.3407
2023-04-16T04:35:51.828Z,8.3293
2023-04-16T04:36:53.521Z,8.3239
2023-04-16T04:37:55.142Z,8.3293
2023-04-16T04:38:56.808Z,8.3324
2023-04-16T04:39:58.425Z,8.3423
2023-04-16T04:41:00.148Z,8.3503
2023-04-16T04:42:01.820Z,8.3605
2023-04-16T04:43:03.397Z,8.3689
2023-04-16T04:44:05.024Z,8.3675
2023-04-16T04:45:06.687Z,8.3700
2023-04-16T04:46:08.417Z,8.3717
2023-04-16T04:47:10.000Z,8.3781
2023-04-16T04:48:11.601Z,8.3890
2023-04-16T04:49:13.262Z,8.3997
2023-04-16T04:50:14.893Z,8.4130
2023-04-16T04:51:16.545Z,8.4141
2023-04-16T04:52:18.209Z,8.4176
2023-04-16T04:53:19.827Z,8.4180
2023-04-16T04:54:21.464Z,8.4100
2023-04-16T04:55:23.121Z,8.4102
2023-04-16T04:56:24.762Z,8.4123
2023-04-16T04:57:26.442Z,8.4100
2023-04-16T04:58:28.061Z,8.4069
2023-04-16T04:59:29.721Z,8.4037
2023-04-16T05:00:31.366Z,8.3998
2023-04-16T05:01:33.190Z,8.3938
2023-04-16T05:02:34.895Z,8.3962
2023-04-16T05:03:37.207Z,8.4053
2023-04-16T05:04:38.118Z,8.4166
2023-04-16T05:05:39.738Z,8.4287
2023-04-16T05:06:41.430Z,8.4370
2023-04-16T05:07:43.064Z,8.4476
2023-04-16T05:08:44.677Z,8.4584
2023-04-16T05:09:46.332Z,8.4735
2023-04-16T05:10:47.953Z,8.4878
2023-04-16T05:11:49.596Z,8.4988
2023-04-16T05:12:51.302Z,8.5017
2023-04-16T05:13:52.975Z,8.5016
2023-04-16T05:14:54.592Z,8.4984
2023-04-16T05:15:56.212Z,8.4964
2023-04-16T05:16:57.941Z,8.5056
2023-04-16T05:17:59.602Z,8.5167
2023-04-16T05:19:01.195Z,8.5190
2023-04-16T05:20:02.789Z,8.5258
2023-04-16T05:21:04.444Z,8.5334
2023-04-16T05:22:06.072Z,8.5442
2023-04-16T05:23:07.765Z,8.5592
2023-04-16T05:24:09.328Z,8.5753
2023-04-16T05:25:10.969Z,8.5879
2023-04-16T05:26:12.604Z,8.6022
2023-04-16T05:27:14.243Z,8.6030
2023-04-16T05:28:15.899Z,8.5895
2023-04-16T05:29:17.539Z,8.5836
2023-04-16T05:30:19.176Z,8.5806
2023-04-16T05:31:20.971Z,8.5850
2023-04-16T05:32:22.504Z,8.5940
2023-04-16T05:33:24.144Z,8.6000
2023-04-16T05:34:25.772Z,8.5975
2023-04-16T05:35:27.412Z,8.5935
2023-04-16T05:36:29.131Z,8.5916
2023-04-16T05:37:30.773Z,8.5918
2023-04-16T05:38:32.497Z,8.5952
2023-04-16T05:39:34.056Z,8.5988
2023-04-16T05:40:35.634Z,8.5939
2023-04-16T05:41:37.283Z,8.5859
2023-04-16T05:42:38.911Z,8.5815
2023-04-16T05:43:40.621Z,8.5855
2023-04-16T05:44:42.240Z,8.5937
2023-04-16T05:45:43.876Z,8.5963
2023-04-16T05:46:45.520Z,8.6029
2023-04-16T05:47:47.230Z,8.6061
2023-04-16T05:48:48.831Z,8.5968
2023-04-16T05:49:50.426Z,8.5827
2023-04-16T05:50:52.089Z,8.5759
2023-04-16T05:51:53.747Z,8.5788
2023-04-16T05:52:55.388Z,8.5827
2023-04-16T05:53:57.069Z,8.5843
2023-04-16T05:54:58.690Z,8.5799
2023-04-16T05:56:00.372Z,8.5819
2023-04-16T05:57:02.036Z,8.5885
2023-04-16T05:58:03.648Z,8.5906
2023-04-16T05:59:05.310Z,8.5903
2023-04-16T06:00:07.017Z,8.5981
2023-04-16T06:01:08.615Z,8.6062
2023-04-16T06:02:10.243Z,8.6147
2023-04-16T06:03:12.041Z,8.6112
2023-04-16T06:04:13.891Z,8.6000
2023-04-16T06:05:15.281Z,8.5847
2023-04-16T06:06:16.830Z,8.5681
2023-04-16T06:07:18.458Z,8.5511
2023-04-16T06:08:20.114Z,8.5470
2023-04-16T06:09:21.827Z,8.5477
2023-04-16T06:10:23.387Z,8.5549
2023-04-16T06:11:24.996Z,8.5616
2023-04-16T06:12:26.656Z,8.5649
2023-04-16T06:13:28.300Z,8.5670
2023-04-16T06:14:29.961Z,8.5619
2023-04-16T06:15:31.590Z,8.5609
2023-04-16T06:16:33.364Z,8.5693
2023-04-16T06:17:34.937Z,8.5784
2023-04-16T06:18:36.501Z,8.5874
2023-04-16T06:19:38.177Z,8.5903
2023-04-16T06:20:39.818Z,8.5911
2023-04-16T06:21:41.458Z,8.5821
2023-04-16T06:22:43.097Z,8.5773
2023-04-16T06:23:44.770Z,8.5754
2023-04-16T06:24:46.456Z,8.5832
2023-04-16T06:25:48.038Z,8.5915
2023-04-16T06:26:49.701Z,8.6012
2023-04-16T06:27:51.374Z,8.6172
2023-04-16T06:28:52.993Z,8.6284
2023-04-16T06:29:54.688Z,8.6400
2023-04-16T06:30:56.278Z,8.6467
2023-04-16T06:31:57.894Z,8.6498
2023-04-16T06:32:59.578Z,8.6575
2023-04-16T06:34:01.257Z,8.6696
2023-04-16T06:35:03.017Z,8.6779
2023-04-16T06:36:04.524Z,8.6855
2023-04-16T06:37:07.184Z,8.6975
2023-04-16T06:38:07.825Z,8.7080
2023-04-16T06:39:09.804Z,8.7247
2023-04-16T06:40:11.129Z,8.7397
2023-04-16T06:41:12.734Z,8.7530
2023-04-16T06:42:14.403Z,8.7662
2023-04-16T06:43:16.021Z,8.7802
2023-04-16T06:44:17.691Z,8.7920
2023-04-16T06:45:19.350Z,8.8017
2023-04-16T06:46:20.999Z,8.8127
2023-04-16T06:47:22.725Z,8.8187
2023-04-16T06:48:24.340Z,8.8280
2023-04-16T06:49:25.948Z,8.8202
2023-04-16T06:50:27.648Z,8.7982
2023-04-16T06:51:29.242Z,8.7613
2023-04-16T06:52:30.899Z,8.7320
2023-04-16T06:53:32.523Z,8.7159
2023-04-16T06:54:34.162Z,8.7088
2023-04-16T06:55:35.849Z,8.6980
2023-04-16T06:56:37.435Z,8.6863
2023-04-16T06:57:39.074Z,8.6730
2023-04-16T06:58:40.735Z,8.6655
2023-04-16T06:59:42.425Z,8.6640
2023-04-16T07:00:44.141Z,8.6683
2023-04-16T07:01:45.723Z,8.6810
2023-04-16T07:02:47.512Z,8.6845
2023-04-16T07:03:49.206Z,8.6915
2023-04-16T07:04:50.599Z,8.6961
2023-04-16T07:05:52.280Z,8.7015
2023-04-16T07:06:53.885Z,8.7000
2023-04-16T07:07:55.513Z,8.7083
2023-04-16T07:08:57.185Z,8.7165
2023-04-16T07:09:58.814Z,8.7211
2023-04-16T07:11:00.486Z,8.7142
2023-04-16T07:12:02.090Z,8.7105
2023-04-16T07:13:03.750Z,8.7179
2023-04-16T07:14:05.394Z,8.7252
2023-04-16T07:15:07.025Z,8.7404
2023-04-16T07:16:08.793Z,8.7518
2023-04-16T07:17:10.364Z,8.7572
2023-04-16T07:18:12.005Z,8.7592
2023-04-16T07:19:13.608Z,8.7719
2023-04-16T07:20:15.272Z,8.7811
2023-04-16T07:21:16.951Z,8.7805
2023-04-16T07:22:18.581Z,8.7708
2023-04-16T07:23:20.201Z,8.7542
2023-04-16T07:24:21.860Z,8.7476
2023-04-16T07:25:23.548Z,8.7516
2023-04-16T07:26:25.173Z,8.7515
2023-04-16T07:27:26.787Z,8.7482
2023-04-16T07:28:28.514Z,8.7482
2023-04-16T07:29:30.108Z,8.7440
2023-04-16T07:30:31.710Z,8.7416
2023-04-16T07:31:33.348Z,8.7460
2023-04-16T07:32:35.038Z,8.7615
2023-04-16T07:33:36.566Z,8.7736
2023-04-16T07:34:38.317Z,8.7697
2023-04-16T07:35:39.862Z,8.7774
2023-04-16T07:36:41.549Z,8.7829
2023-04-16T07:37:43.150Z,8.7834
2023-04-16T07:38:44.829Z,8.7816
2023-04-16T07:39:46.465Z,8.7814
2023-04-16T07:40:48.094Z,8.7878
2023-04-16T07:41:49.803Z,8.7916
2023-04-16T07:42:51.391Z,8.7938
2023-04-16T07:43:53.038Z,8.7885
2023-04-16T07:44:54.695Z,8.7662
2023-04-16T07:45:56.468Z,8.7566
2023-04-16T07:46:58.111Z,8.7595
2023-04-16T07:47:59.880Z,8.7614
2023-04-16T07:49:01.296Z,8.7578
2023-04-16T07:50:02.908Z,8.7707
2023-04-16T07:51:04.593Z,8.7824
2023-04-16T07:52:06.231Z,8.7984
2023-04-16T07:53:07.930Z,8.8107
2023-04-16T07:54:09.502Z,8.8176
2023-04-16T07:55:11.156Z,8.8248
2023-04-16T07:56:12.798Z,8.8380
2023-04-16T07:57:14.463Z,8.8497
2023-04-16T07:58:16.106Z,8.8489
2023-04-16T07:59:23.352Z,8.8483
2023-04-16T08:00:19.384Z,8.8238
2023-04-16T08:01:21.009Z,8.7951
2023-04-16T08:02:22.828Z,8.7750
2023-04-16T08:03:24.636Z,8.7677
2023-04-16T08:04:26.536Z,8.7699
2023-04-16T08:05:27.599Z,8.7768
2023-04-16T08:06:29.222Z,8.7827
2023-04-16T08:07:31.920Z,8.7840
2023-04-16T08:08:32.514Z,8.7881
2023-04-16T08:09:34.178Z,8.7915
2023-04-16T08:10:35.821Z,8.7890
2023-04-16T08:11:37.465Z,8.7937
2023-04-16T08:12:39.131Z,8.7933
2023-04-16T08:13:40.744Z,8.7883
2023-04-16T08:14:42.382Z,8.7957
2023-04-16T08:15:44.062Z,8.8044
2023-04-16T08:16:45.735Z,8.8139
2023-04-16T08:17:47.403Z,8.8216
2023-04-16T08:18:49.172Z,8.8286
2023-04-16T08:19:50.645Z,8.8428
2023-04-16T08:20:52.281Z,8.8486
2023-04-16T08:21:53.900Z,8.8516
2023-04-16T08:22:55.608Z,8.8615
2023-04-16T08:23:57.269Z,8.8763
2023-04-16T08:24:58.864Z,8.8917
2023-04-16T08:26:00.463Z,8.9124
2023-04-16T08:27:11.448Z,8.9388
2023-04-16T08:28:03.816Z,8.9535
2023-04-16T08:29:05.414Z,8.9735
2023-04-16T08:30:07.680Z,8.9876
2023-04-16T08:31:08.783Z,8.9913
2023-04-16T08:32:10.418Z,8.9932
2023-04-16T08:33:12.124Z,9.0033
2023-04-16T08:34:13.681Z,9.0094
2023-04-16T08:35:15.321Z,9.0213
2023-04-16T08:36:16.957Z,9.0365
2023-04-16T08:37:18.608Z,9.0527
2023-04-16T08:38:20.282Z,9.0632
2023-04-16T08:39:21.923Z,9.0815
2023-04-16T08:40:23.520Z,9.1115
2023-04-16T08:41:25.171Z,9.1411
2023-04-16T08:42:26.878Z,9.1598
2023-04-16T08:43:28.481Z,9.1790
2023-04-16T08:44:30.101Z,9.1893
2023-04-16T08:45:31.743Z,9.2029
2023-04-16T08:46:33.423Z,9.2139
2023-04-16T08:47:35.057Z,9.2313
2023-04-16T08:48:36.707Z,9.2426
2023-04-16T08:49:38.308Z,9.2508
2023-04-16T08:50:39.954Z,9.2763
2023-04-16T08:51:41.605Z,9.3094
2023-04-16T08:52:43.256Z,9.3440
2023-04-16T08:53:44.927Z,9.3686
2023-04-16T08:54:46.527Z,9.3787
2023-04-16T08:55:48.192Z,9.3798
2023-04-16T08:56:49.822Z,9.3869
2023-04-16T08:57:51.464Z,9.4071
2023-04-16T08:58:53.154Z,9.4325
2023-04-16T08:59:54.762Z,9.4381
2023-04-16T09:00:56.405Z,9.4212
2023-04-16T09:01:58.249Z,9.4111
2023-04-16T09:02:59.777Z,9.4062
2023-04-16T09:04:01.685Z,9.3979
2023-04-16T09:05:03.127Z,9.3863
2023-04-16T09:06:04.686Z,9.3820
2023-04-16T09:07:06.347Z,9.3721
2023-04-16T09:08:08.006Z,9.3669
2023-04-16T09:09:10.095Z,9.3729
2023-04-16T09:10:11.298Z,9.3829
2023-04-16T09:11:12.952Z,9.4009
2023-04-16T09:12:14.553Z,9.4268
2023-04-16T09:13:16.195Z,9.4570
2023-04-16T09:14:17.878Z,9.4859
2023-04-16T09:15:19.461Z,9.5170
2023-04-16T09:16:21.099Z,9.5376
2023-04-16T09:17:22.796Z,9.5378
2023-04-16T09:18:24.345Z,9.5289
2023-04-16T09:19:26.052Z,9.5279
2023-04-16T09:20:27.661Z,9.5280
2023-04-16T09:21:29.289Z,9.5255
2023-04-16T09:22:30.898Z,9.5328
2023-04-16T09:23:32.576Z,9.5387
2023-04-16T09:24:34.218Z,9.5438
2023-04-16T09:25:35.836Z,9.5558
2023-04-16T09:26:37.474Z,9.5716
2023-04-16T09:27:39.160Z,9.5705
2023-04-16T09:28:40.756Z,9.5624
2023-04-16T09:29:42.447Z,9.5488
2023-04-16T09:30:44.055Z,9.5338
2023-04-16T09:31:45.742Z,9.5318
2023-04-16T09:32:47.367Z,9.5323
2023-04-16T09:33:48.996Z,9.5353
2023-04-16T09:34:50.696Z,9.5455
2023-04-16T09:35:52.301Z,9.5621
2023-04-16T09:36:53.954Z,9.5732
2023-04-16T09:37:55.584Z,9.5820
2023-04-16T09:38:57.844Z,9.5999
2023-04-16T09:39:58.900Z,9.6244
2023-04-16T09:41:00.503Z,9.6438
2023-04-16T09:42:02.361Z,9.6552
2023-04-16T09:43:03.778Z,9.6620
2023-04-16T09:44:05.523Z,9.6629
2023-04-16T09:45:07.079Z,9.6580
2023-04-16T09:46:08.836Z,9.6541
2023-04-16T09:47:10.348Z,9.6497
2023-04-16T09:48:12.003Z,9.6504
2023-04-16T09:49:13.626Z,9.6513
2023-04-16T09:50:17.722Z,9.6511
2023-04-16T09:51:16.911Z,9.6340
2023-04-16T09:52:18.715Z,9.6106
2023-04-16T09:53:20.207Z,9.5849
2023-04-16T09:54:21.875Z,9.5587
2023-04-16T09:55:23.542Z,9.5426
2023-04-16T09:56:25.132Z,9.5345
2023-04-16T09:57:26.807Z,9.5356
2023-04-16T09:58:28.438Z,9.5443
2023-04-16T09:59:30.199Z,9.5522
2023-04-16T10:00:31.829Z,9.5603
2023-04-16T10:01:33.407Z,9.5729
2023-04-16T10:02:35.077Z,9.5776
2023-04-16T10:03:37.021Z,9.5807
2023-04-16T10:04:38.349Z,9.5803
2023-04-16T10:05:39.986Z,9.5805
2023-04-16T10:06:41.595Z,9.5818
2023-04-16T10:07:43.260Z,9.5803
2023-04-16T10:08:44.892Z,9.5842
2023-04-16T10:09:46.529Z,9.5954
2023-04-16T10:10:48.232Z,9.6037
2023-04-16T10:11:49.810Z,9.6043
2023-04-16T10:12:51.478Z,9.5984
2023-04-16T10:13:53.181Z,9.5754
2023-04-16T10:14:54.822Z,9.5586
2023-04-16T10:15:56.536Z,9.5460
2023-04-16T10:16:58.129Z,9.5455
2023-04-16T10:17:59.846Z,9.5520
2023-04-16T10:19:01.446Z,9.5728
2023-04-16T10:20:03.051Z,9.6025
2023-04-16T10:21:04.728Z,9.6196
2023-04-16T10:22:06.398Z,9.6264
2023-04-16T10:23:07.991Z,9.6394
2023-04-16T10:24:09.638Z,9.6450
2023-04-16T10:25:11.362Z,9.6493
2023-04-16T10:26:12.986Z,9.6597
2023-04-16T10:27:14.558Z,9.6667
2023-04-16T10:28:16.199Z,9.6843
2023-04-16T10:29:17.854Z,9.7001
2023-04-16T10:30:19.497Z,9.7212
2023-04-16T10:31:21.253Z,9.7436
2023-04-16T10:32:22.822Z,9.7632
2023-04-16T10:33:24.417Z,9.7774
2023-04-16T10:34:26.039Z,9.7921
2023-04-16T10:35:27.771Z,9.8099
2023-04-16T10:36:29.389Z,9.8298
2023-04-16T10:37:30.974Z,9.8539
2023-04-16T10:38:32.658Z,9.8876
2023-04-16T10:39:34.253Z,9.9201
2023-04-16T10:40:35.935Z,9.9505
2023-04-16T10:41:37.670Z,9.9829
2023-04-16T10:42:39.180Z,10.0171
2023-04-16T10:43:40.838Z,10.0573
2023-04-16T10:44:45.229Z,10.1056
2023-04-16T10:45:44.120Z,10.1439
2023-04-16T10:46:45.809Z,10.1917
2023-04-16T10:47:47.463Z,10.2502
2023-04-16T10:48:50.652Z,10.3105
2023-04-16T10:49:50.694Z,10.3636
2023-04-16T10:50:52.314Z,10.4145
2023-04-16T10:51:54.011Z,10.4518
2023-04-16T10:52:55.595Z,10.4980
2023-04-16T10:53:57.251Z,10.5462
2023-04-16T10:54:58.918Z,10.5950
2023-04-16T10:56:00.509Z,10.6355
2023-04-16T10:57:03.773Z,10.6701
2023-04-16T10:58:03.881Z,10.6917
2023-04-16T10:59:05.426Z,10.7115
2023-04-16T11:00:07.085Z,10.7253
2023-04-16T11:01:08.709Z,10.7450
2023-04-16T11:02:10.583Z,10.7617
2023-04-16T11:03:12.125Z,10.7751
2023-04-16T11:04:13.713Z,10.7788
2023-04-16T11:05:15.267Z,10.7716
2023-04-16T11:06:16.899Z,10.7718
2023-04-16T11:07:18.576Z,10.7677
2023-04-16T11:08:20.107Z,10.7608
2023-04-16T11:09:21.708Z,10.7467
2023-04-16T11:10:23.387Z,10.7345
2023-04-16T11:11:25.242Z,10.7179
2023-04-16T11:12:26.674Z,10.7155
2023-04-16T11:13:28.292Z,10.7147
2023-04-16T11:14:29.911Z,10.7121
2023-04-16T11:15:31.529Z,10.7016
2023-04-16T11:16:33.356Z,10.6947
2023-04-16T11:17:34.901Z,10.6936
2023-04-16T11:18:36.492Z,10.6813
2023-04-16T11:19:38.122Z,10.6680
2023-04-16T11:20:39.757Z,10.6680
2023-04-16T11:21:41.398Z,10.6711
2023-04-16T11:22:43.048Z,10.6738
2023-04-16T11:23:44.692Z,10.6779
2023-04-16T11:24:46.354Z,10.6856
2023-04-16T11:25:47.990Z,10.6965
2023-04-16T11:26:49.622Z,10.7137
2023-04-16T11:27:51.325Z,10.7375
2023-04-16T11:28:52.915Z,10.7580
2023-04-16T11:29:54.555Z,10.7785
2023-04-16T11:30:56.238Z,10.7945
2023-04-16T11:31:57.836Z,10.7921
2023-04-16T11:32:59.555Z,10.7849
2023-04-16T11:34:01.142Z,10.7779
2023-04-16T11:35:02.794Z,10.7620
2023-04-16T11:36:04.424Z,10.7448
2023-04-16T11:37:06.092Z,10.7353
2023-04-16T11:38:07.805Z,10.7168
2023-04-16T11:39:09.632Z,10.6975
2023-04-16T11:40:10.995Z,10.6794
2023-04-16T11:41:12.630Z,10.6542
2023-04-16T11:42:14.376Z,10.6268
2023-04-16T11:43:15.942Z,10.6120
2023-04-16T11:44:17.704Z,10.6090
2023-04-16T11:45:19.246Z,10.6137
2023-04-16T11:46:27.466Z,10.6211
2023-04-16T11:47:22.586Z,10.6007
2023-04-16T11:48:24.162Z,10.5884
2023-04-16T11:49:25.763Z,10.5725
2023-04-16T11:50:27.431Z,10.5581
2023-04-16T11:51:29.044Z,10.5433
2023-04-16T11:52:30.707Z,10.5270
2023-04-16T11:53:32.378Z,10.5147
2023-04-16T11:54:34.006Z,10.4950
2023-04-16T11:55:35.632Z,10.4905
2023-04-16T11:56:37.293Z,10.4997
2023-04-16T11:57:38.906Z,10.5018
2023-04-16T11:58:42.445Z,10.4938
2023-04-16T12:00:02.610Z,10.4795
2023-04-16T12:00:43.866Z,10.4676
2023-04-16T12:01:45.532Z,10.4705
2023-04-16T12:02:47.280Z,10.4716
2023-04-16T12:03:49.073Z,10.4715
2023-04-16T12:04:50.511Z,10.4665
2023-04-16T12:05:52.158Z,10.4679
2023-04-16T12:06:53.705Z,10.4765
2023-04-16T12:07:55.310Z,10.4834
2023-04-16T12:08:56.994Z,10.4960
2023-04-16T12:09:58.598Z,10.5133
2023-04-16T12:11:00.251Z,10.5354
2023-04-16T12:12:01.874Z,10.5544
2023-04-16T12:13:03.575Z,10.5702
2023-04-16T12:14:05.182Z,10.5811
2023-04-16T12:15:06.778Z,10.5894
2023-04-16T12:16:08.447Z,10.5935
2023-04-16T12:17:10.398Z,10.6083
2023-04-16T12:18:11.791Z,10.6302
2023-04-16T12:19:13.502Z,10.6455
2023-04-16T12:20:14.996Z,10.6629
2023-04-16T12:21:16.659Z,10.6830
2023-04-16T12:22:18.276Z,10.7035
2023-04-16T12:23:20.190Z,10.7149
2023-04-16T12:24:21.625Z,10.7232
2023-04-16T12:25:23.196Z,10.7258
2023-04-16T12:26:24.843Z,10.7271
2023-04-16T12:27:26.490Z,10.7320
2023-04-16T12:28:28.082Z,10.7379
2023-04-16T12:29:29.802Z,10.7385
2023-04-16T12:30:31.454Z,10.7367
2023-04-16T12:31:33.018Z,10.7377
2023-04-16T12:32:34.744Z,10.7452
2023-04-16T12:33:36.312Z,10.7576
2023-04-16T12:34:49.480Z,10.7693
2023-04-16T12:35:39.599Z,10.7724
2023-04-16T12:36:41.188Z,10.7820
2023-04-16T12:37:42.847Z,10.7867
2023-04-16T12:38:44.474Z,10.7959
2023-04-16T12:39:47.912Z,10.8065
2023-04-16T12:40:47.762Z,10.8186
2023-04-16T12:41:49.525Z,10.8275
2023-04-16T12:42:51.212Z,10.8383
2023-04-16T12:43:52.781Z,10.8526
2023-04-16T12:44:54.479Z,10.8793